Time;durP1;ratioP1;P1;durP2;ratioP2;P2;SDS_P1;SDS_P2;PMS_P1;PMS_P2;Temp;Humidity;BMP_temperature;BMP_pressure;BME280_temperature;BME280_humidity;BME280_pressure;Samples;Min_cycle;Max_cycle;Signal;HPM_P1;HPM_P2
2021/11/02 00:01:37;;;;;;;144.63;38.72;;;;;;;0.89;69.35;100533.56;5015210;28;20412;-80
2021/11/02 00:04:05;;;;;;;127.97;35.95;;;;;;;1.02;69.39;100564.81;5050549;28;20301;-79
2021/11/02 00:06:33;;;;;;;102.10;36.00;;;;;;;1.06;69.29;100579.53;5006756;28;20639;-81
2021/11/02 00:08:59;;;;;;;76.57;33.65;;;;;;;0.85;69.61;100544.47;5034935;28;20045;-79
2021/11/02 00:11:25;;;;;;;78.88;34.53;;;;;;;1.10;69.52;100578.84;5021851;28;20045;-79
2021/11/02 00:13:53;;;;;;;67.95;32.10;;;;;;;1.02;69.29;100573.41;5041899;28;20045;-81
2021/11/02 00:16:22;;;;;;;68.63;30.92;;;;;;;1.04;69.32;100565.75;5047016;28;20032;-80
2021/11/02 00:19:07;;;;;;;66.18;30.08;;;;;;;1.22;69.41;100587.84;5031749;28;20040;-79
2021/11/02 00:21:39;;;;;;;62.88;30.95;;;;;;;1.33;69.22;100590.03;5051585;28;20152;-80
2021/11/02 00:26:49;;;;;;;106.82;30.45;;;;;;;1.49;69.18;100577.88;5013882;28;20063;-79
2021/11/02 00:29:15;;;;;;;132.75;37.78;;;;;;;1.56;69.14;100578.97;5002502;28;20053;-80
2021/11/02 00:31:41;;;;;;;327.77;44.15;;;;;;;1.57;68.22;100580.75;5018557;28;20044;-82
2021/11/02 00:34:07;;;;;;;144.82;37.15;;;;;;;1.55;69.38;100575.53;5030946;28;20823;-82
2021/11/02 00:36:32;;;;;;;144.43;37.15;;;;;;;1.50;68.86;100552.25;5031264;28;20048;-79
2021/11/02 00:38:58;;;;;;;253.38;38.80;;;;;;;1.54;68.80;100549.81;5019549;28;20163;-80
2021/11/02 00:41:26;;;;;;;175.90;38.65;;;;;;;1.65;69.36;100562.25;5053854;28;20041;-80
2021/11/02 00:43:54;;;;;;;315.95;45.65;;;;;;;1.71;69.33;100561.63;5039043;28;20049;-80
2021/11/02 00:46:26;;;;;;;428.50;49.70;;;;;;;1.68;69.17;100558.94;5020223;28;20052;-79
2021/11/02 00:48:52;;;;;;;113.65;33.97;;;;;;;1.76;69.26;100579.78;5036762;28;20033;-82
2021/11/02 00:51:18;;;;;;;112.82;35.80;;;;;;;1.59;69.40;100550.88;5031576;28;20050;-81
2021/11/02 00:53:44;;;;;;;127.82;36.22;;;;;;;1.73;69.03;100569.41;5019670;28;20558;-79
2021/11/02 00:56:09;;;;;;;78.55;33.25;;;;;;;1.79;69.03;100570.50;5031833;28;20063;-80
2021/11/02 00:58:37;;;;;;;91.28;34.88;;;;;;;1.80;69.44;100558.53;5018863;28;20059;-78
2021/11/02 01:01:02;;;;;;;147.55;35.38;;;;;;;1.90;69.11;100570.94;5051916;28;20501;-80
2021/11/02 01:03:28;;;;;;;95.95;34.72;;;;;;;1.81;69.46;100547.47;5031554;28;20126;-79
2021/11/02 01:05:54;;;;;;;157.25;36.83;;;;;;;1.99;68.92;100566.97;5006176;28;20036;-79
2021/11/02 01:08:21;;;;;;;313.40;36.72;;;;;;;2.06;69.41;100577.53;5019009;28;20040;-79
2021/11/02 01:10:49;;;;;;;354.75;38.50;;;;;;;2.02;69.20;100567.06;5032645;28;20455;-79
2021/11/02 01:13:15;;;;;;;230.32;38.38;;;;;;;2.00;68.75;100556.75;5028579;28;20588;-80
2021/11/02 01:15:42;;;;;;;226.18;38.35;;;;;;;1.79;69.17;100520.84;5034276;28;20033;-81
2021/11/02 01:18:08;;;;;;;183.80;35.67;;;;;;;2.08;69.37;100565.63;5018165;28;20059;-79
2021/11/02 01:20:39;;;;;;;211.15;39.95;;;;;;;2.04;69.35;100553.50;5011851;28;20135;-79
2021/11/02 01:23:06;;;;;;;259.45;38.28;;;;;;;1.94;69.46;100533.41;5026068;28;20044;-79
2021/11/02 01:25:33;;;;;;;206.60;35.33;;;;;;;2.10;69.27;100556.25;5004050;28;20400;-81
2021/11/02 01:27:59;;;;;;;204.73;35.08;;;;;;;2.03;68.98;100541.47;5045627;28;20120;-80
2021/11/02 01:30:30;;;;;;;200.13;37.08;;;;;;;2.15;69.59;100566.72;5030780;28;20152;-80
2021/11/02 01:32:56;;;;;;;142.82;30.85;;;;;;;2.08;69.38;100551.91;5026959;28;20037;-81
2021/11/02 01:35:23;;;;;;;137.15;31.90;;;;;;;2.14;69.62;100558.94;5023761;28;20040;-81
2021/11/02 01:37:57;;;;;;;116.75;30.52;;;;;;;2.17;69.89;100553.94;5034006;28;20039;-81
2021/11/02 01:40:48;;;;;;;131.65;30.90;;;;;;;2.04;69.00;100530.38;5015721;28;20408;-82
2021/11/02 01:43:16;;;;;;;181.90;32.83;;;;;;;2.18;69.66;100556.56;5030754;28;20063;-80
2021/11/02 01:45:43;;;;;;;174.45;32.50;;;;;;;2.23;69.42;100554.16;5013388;28;20460;-80
2021/11/02 01:48:15;;;;;;;132.10;30.58;;;;;;;2.09;69.46;100526.31;5030372;28;20070;-79
2021/11/02 01:50:44;;;;;;;171.23;33.47;;;;;;;2.04;69.35;100526.91;5019410;28;20544;-80
2021/11/02 01:53:16;;;;;;;232.25;39.50;;;;;;;2.29;69.45;100571.50;5031077;28;20041;-82
2021/11/02 01:56:03;;;;;;;160.15;32.42;;;;;;;2.33;69.47;100570.78;5034437;28;20041;-79
2021/11/02 01:58:56;;;;;;;181.32;35.42;;;;;;;2.35;69.39;100587.16;5015421;28;20041;-81
2021/11/02 02:01:31;;;;;;;170.18;32.85;;;;;;;2.37;69.92;100573.53;5002453;28;20128;-80
2021/11/02 02:04:25;;;;;;;267.08;37.78;;;;;;;2.32;69.63;100563.91;5012968;28;20080;-79
2021/11/02 02:07:01;;;;;;;183.43;33.88;;;;;;;2.33;69.28;100566.53;5030971;28;20072;-78
2021/11/02 02:09:49;;;;;;;147.27;33.55;;;;;;;2.36;69.43;100571.78;5012810;28;20033;-79
2021/11/02 02:12:48;;;;;;;318.08;40.53;;;;;;;2.37;69.82;100578.66;5021623;28;20527;-80
2021/11/02 02:15:27;;;;;;;233.80;37.58;;;;;;;1.95;69.80;100510.38;5034816;28;20036;-78
2021/11/02 02:18:05;;;;;;;284.88;36.60;;;;;;;2.30;69.45;100575.81;5034986;28;20055;-79
2021/11/02 02:20:59;;;;;;;234.32;35.38;;;;;;;2.34;69.90;100572.53;5034122;28;20093;-79
2021/11/02 02:24:03;;;;;;;138.02;32.60;;;;;;;2.17;69.33;100552.25;5018092;28;20037;-79
2021/11/02 02:27:04;;;;;;;253.55;34.63;;;;;;;2.34;69.82;100575.97;5016566;28;20045;-78
2021/11/02 02:29:34;;;;;;;245.98;36.15;;;;;;;2.35;69.69;100576.88;5049151;28;20053;-80
2021/11/02 02:32:07;;;;;;;198.95;32.13;;;;;;;2.20;69.92;100551.50;5026690;28;20063;-80
2021/11/02 02:34:34;;;;;;;227.98;32.15;;;;;;;2.22;69.54;100567.84;5020789;28;20045;-80
2021/11/02 02:37:01;;;;;;;255.13;35.28;;;;;;;2.08;69.40;100562.16;5020829;28;20135;-81
2021/11/02 02:39:28;;;;;;;200.43;33.78;;;;;;;2.06;69.59;100548.41;5030420;28;20037;-79
2021/11/02 02:42:09;;;;;;;195.70;33.85;;;;;;;2.29;69.52;100579.19;5022948;28;20069;-80
2021/11/02 02:44:45;;;;;;;110.30;28.63;;;;;;;2.05;69.53;100541.50;5021975;28;20109;-80
2021/11/02 02:47:11;;;;;;;135.38;31.02;;;;;;;2.05;69.06;100534.69;5027292;28;20045;-79
2021/11/02 02:49:41;;;;;;;232.32;32.40;;;;;;;2.32;69.74;100581.88;5040274;28;20040;-78
2021/11/02 02:52:09;;;;;;;236.68;34.70;;;;;;;2.34;69.52;100575.97;5015098;28;20054;-79
2021/11/02 02:54:36;;;;;;;136.63;28.50;;;;;;;2.41;69.52;100579.69;5029483;28;20044;-79
2021/11/02 02:57:03;;;;;;;185.38;31.73;;;;;;;2.43;68.99;100585.72;5003029;28;20037;-79
2021/11/02 02:59:30;;;;;;;126.15;33.22;;;;;;;2.40;69.75;100583.91;5022658;28;20049;-80
2021/11/02 03:01:56;;;;;;;197.70;33.30;;;;;;;2.41;69.79;100575.41;5033702;28;20048;-80
2021/11/02 03:04:30;;;;;;;112.70;30.48;;;;;;;2.25;69.32;100557.69;5000462;28;20037;-79
2021/11/02 03:06:58;;;;;;;158.65;33.50;;;;;;;2.14;69.49;100547.00;5018394;28;20072;-78
2021/11/02 03:09:29;;;;;;;120.57;31.87;;;;;;;2.27;69.53;100568.88;5017615;28;20485;-80
2021/11/02 03:11:56;;;;;;;102.38;31.40;;;;;;;2.21;69.27;100560.94;5034021;28;20040;-83
2021/11/02 03:14:44;;;;;;;179.35;33.50;;;;;;;2.14;69.76;100536.72;5032926;28;20048;-80
2021/11/02 03:17:14;;;;;;;385.85;46.47;;;;;;;2.39;69.15;100587.31;5051115;28;20037;-80
2021/11/02 03:56:14;;;;;;;334.05;37.47;;;;;;;1.85;69.01;100562.16;5027278;28;20065;-80
2021/11/02 03:59:37;;;;;;;356.02;35.08;;;;;;;2.00;69.35;100600.41;5030401;28;20041;-81
2021/11/02 04:33:15;;;;;;;145.68;23.58;;;;;;;1.75;69.22;100530.13;5032702;28;20092;-80
2021/11/02 05:49:52;;;;;;;141.90;29.35;;;;;;;2.88;68.73;100617.28;5021743;28;20041;-78
2021/11/02 05:55:14;;;;;;;203.85;33.30;;;;;;;1.86;69.39;100501.47;5038830;28;20094;-78
2021/11/02 06:00:33;;;;;;;241.32;34.97;;;;;;;2.49;69.39;100608.22;5046537;28;20048;-78
2021/11/02 06:06:57;;;;;;;133.40;32.53;;;;;;;1.62;69.54;100480.03;5019402;28;20058;-80
2021/11/02 06:30:09;;;;;;;136.07;26.60;;;;;;;2.19;68.59;100426.47;5052372;28;20083;-79
2021/11/02 06:32:39;;;;;;;192.77;29.98;;;;;;;2.87;68.22;100590.72;5035403;28;20044;-78
2021/11/02 06:35:28;;;;;;;268.85;32.55;;;;;;;2.61;67.23;100590.66;5050539;28;20040;-82
2021/11/02 07:19:17;;;;;;;123.63;26.95;;;;;;;2.97;69.23;100622.78;4989601;28;20106;-79
2021/11/02 07:21:59;;;;;;;148.48;28.88;;;;;;;3.28;68.91;100629.84;5034399;28;20071;-81
2021/11/02 07:24:49;;;;;;;73.50;28.55;;;;;;;3.55;69.41;100629.03;5034747;28;20037;-78
2021/11/02 08:46:38;;;;;;;126.32;26.80;;;;;;;4.36;67.71;100642.72;5021874;28;20036;-78
2021/11/02 08:49:06;;;;;;;65.22;26.08;;;;;;;4.22;67.94;100662.00;5022797;28;20041;-79
2021/11/02 08:51:35;;;;;;;77.95;24.85;;;;;;;4.36;68.03;100644.41;5039302;28;20041;-78
2021/11/02 08:54:08;;;;;;;92.63;26.60;;;;;;;4.15;67.54;100601.69;5021461;28;20036;-80
2021/11/02 08:56:49;;;;;;;98.47;25.77;;;;;;;4.18;67.26;100564.88;5021465;28;20056;-78
2021/11/02 08:59:20;;;;;;;150.48;28.35;;;;;;;3.60;66.64;100461.88;5004780;28;20194;-79
2021/11/02 09:01:57;;;;;;;63.35;24.73;;;;;;;4.08;66.60;100543.13;5034578;28;20153;-77
2021/11/02 09:04:30;;;;;;;125.80;26.75;;;;;;;4.44;66.23;100580.19;5021444;28;20032;-79
2021/11/02 09:07:03;;;;;;;105.68;24.85;;;;;;;4.41;65.51;100639.41;5031410;28;20045;-81
2021/11/02 09:09:40;;;;;;;103.65;27.05;;;;;;;4.31;66.78;100651.09;5032654;28;20090;-81
2021/11/02 09:12:10;;;;;;;110.97;27.77;;;;;;;4.04;67.17;100603.97;5015729;28;20055;-78
2021/11/02 09:14:39;;;;;;;116.65;27.27;;;;;;;4.46;66.80;100635.25;5018280;28;20072;-78
2021/11/02 09:17:06;;;;;;;104.25;28.10;;;;;;;4.41;66.18;100609.34;5032403;28;20052;-78
2021/11/02 09:19:36;;;;;;;68.28;27.88;;;;;;;4.44;67.35;100619.75;5023167;28;20032;-82
2021/11/02 09:22:14;;;;;;;96.10;28.70;;;;;;;4.60;66.81;100638.22;5024566;28;20180;-79
2021/11/02 09:24:42;;;;;;;95.95;29.50;;;;;;;4.46;64.20;100643.84;5035298;28;20043;-78
2021/11/02 09:27:13;;;;;;;130.90;29.27;;;;;;;4.33;65.99;100634.00;5020908;28;20062;-77
2021/11/02 09:29:39;;;;;;;144.70;28.20;;;;;;;4.22;65.68;100655.19;5022522;28;20059;-78
2021/11/02 09:32:10;;;;;;;99.70;26.98;;;;;;;4.26;67.95;100647.53;5030565;28;20037;-81
2021/11/02 09:34:36;;;;;;;121.90;31.25;;;;;;;4.36;66.73;100649.56;5027859;28;20040;-81
2021/11/02 09:37:16;;;;;;;98.72;28.33;;;;;;;4.49;67.75;100646.53;5032465;28;20052;-83
2021/11/02 09:39:51;;;;;;;88.03;30.08;;;;;;;4.64;67.85;100640.06;5049117;28;20100;-79
2021/11/02 09:42:56;;;;;;;76.97;28.52;;;;;;;4.87;67.94;100645.00;5023087;28;20075;-79
2021/11/02 09:45:50;;;;;;;113.47;27.75;;;;;;;5.12;67.52;100636.22;5038496;28;20071;-79
2021/11/02 09:48:42;;;;;;;98.60;28.70;;;;;;;5.28;67.38;100638.38;5038568;28;20046;-79
2021/11/02 09:51:59;;;;;;;115.10;28.48;;;;;;;4.98;66.46;100639.31;5023862;28;20074;-77
2021/11/02 09:54:37;;;;;;;103.25;27.40;;;;;;;5.00;66.38;100641.91;4985151;28;20218;-78
2021/11/02 09:57:32;;;;;;;94.60;29.40;;;;;;;4.83;66.91;100637.16;5017540;28;20465;-79
2021/11/02 10:00:28;;;;;;;71.85;28.77;;;;;;;5.07;66.34;100633.53;5049281;28;20068;-80
2021/11/02 10:03:28;;;;;;;123.25;27.98;;;;;;;4.90;65.38;100619.28;5036635;28;20056;-77
2021/11/02 10:06:12;;;;;;;86.95;28.05;;;;;;;5.09;66.65;100636.13;5039743;28;20072;-78
2021/11/02 10:08:44;;;;;;;98.78;28.52;;;;;;;4.85;65.85;100626.03;5040186;28;20127;-79
2021/11/02 10:11:24;;;;;;;88.80;28.70;;;;;;;4.88;66.56;100629.56;5050782;28;20509;-78
2021/11/02 10:14:10;;;;;;;92.72;27.52;;;;;;;5.05;66.72;100630.03;5002485;28;20037;-84
2021/11/02 10:16:57;;;;;;;103.78;29.17;;;;;;;4.81;66.11;100637.97;5036099;28;20051;-79
2021/11/02 10:19:47;;;;;;;113.05;28.38;;;;;;;4.57;65.92;100633.88;5019536;28;20043;-81
2021/11/02 10:22:39;;;;;;;101.60;28.40;;;;;;;4.57;66.67;100626.13;5031483;28;20576;-78
2021/11/02 10:25:12;;;;;;;96.10;28.02;;;;;;;4.45;66.27;100626.66;5032928;28;20119;-80
2021/11/02 10:28:09;;;;;;;81.90;27.83;;;;;;;4.37;66.92;100633.25;5050331;28;20049;-81
2021/11/02 10:30:40;;;;;;;79.32;27.35;;;;;;;4.53;67.35;100621.72;5017748;28;20409;-78
2021/11/02 10:33:18;;;;;;;103.47;26.60;;;;;;;4.64;66.57;100614.28;5046753;28;20095;-79
2021/11/02 10:35:47;;;;;;;86.15;27.27;;;;;;;4.66;67.74;100626.38;5014440;28;20069;-79
2021/11/02 10:38:26;;;;;;;112.30;28.63;;;;;;;4.29;66.11;100596.09;5017773;28;20041;-79
2021/11/02 10:40:58;;;;;;;146.07;35.17;;;;;;;4.41;66.42;100622.22;5019618;28;20041;-81
2021/11/02 10:43:33;;;;;;;148.43;37.20;;;;;;;4.33;67.35;100615.97;5031964;28;20064;-79
2021/11/02 10:46:13;;;;;;;107.20;35.20;;;;;;;4.20;68.07;100600.16;5035283;28;20177;-79
2021/11/02 10:48:47;;;;;;;104.22;31.95;;;;;;;4.35;68.71;100612.63;5049898;28;20442;-82
2021/11/02 10:51:36;;;;;;;94.72;32.80;;;;;;;4.40;68.21;100609.31;5019527;28;20041;-82
2021/11/02 10:54:42;;;;;;;99.00;30.90;;;;;;;4.59;69.26;100603.84;5052474;28;20053;-80
2021/11/02 10:57:35;;;;;;;103.75;30.23;;;;;;;4.66;68.34;100616.06;5014880;28;20083;-77
2021/11/02 11:00:07;;;;;;;143.38;30.48;;;;;;;4.52;67.85;100589.88;5035618;28;20075;-80
2021/11/02 11:02:34;;;;;;;171.68;33.53;;;;;;;4.27;67.38;100596.03;5035220;28;20055;-79
2021/11/02 11:05:03;;;;;;;92.18;31.17;;;;;;;4.13;69.25;100574.16;5039990;28;20079;-78
2021/11/02 11:07:38;;;;;;;110.25;32.58;;;;;;;4.45;68.46;100603.44;5038125;28;20063;-79
2021/11/02 11:10:07;;;;;;;97.18;31.95;;;;;;;4.42;69.28;100572.44;5039899;28;20043;-83
2021/11/02 11:12:44;;;;;;;131.05;34.17;;;;;;;4.66;68.25;100599.72;5017753;28;20044;-79
2021/11/02 11:15:10;;;;;;;126.57;32.65;;;;;;;4.58;68.54;100596.06;5037487;28;20041;-80
2021/11/02 11:17:39;;;;;;;126.43;31.88;;;;;;;4.41;69.45;100608.47;5020179;28;20097;-82
2021/11/02 11:20:14;;;;;;;129.30;29.42;;;;;;;4.27;68.41;100600.34;5018883;28;20098;-77
2021/11/02 11:22:45;;;;;;;115.53;29.50;;;;;;;3.91;69.49;100576.09;5011866;28;20135;-79
2021/11/02 11:25:20;;;;;;;90.13;28.30;;;;;;;4.25;69.83;100609.72;5049350;28;20515;-80
2021/11/02 11:27:51;;;;;;;138.38;30.65;;;;;;;4.35;68.88;100615.19;5038064;28;20049;-79
2021/11/02 11:30:19;;;;;;;144.65;30.98;;;;;;;4.31;68.78;100610.78;5030596;28;20056;-76
2021/11/02 11:32:48;;;;;;;127.93;31.08;;;;;;;4.04;68.61;100610.81;5043352;28;20045;-77
2021/11/02 11:35:17;;;;;;;115.28;27.63;;;;;;;3.79;69.22;100581.72;5044777;28;20045;-79
2021/11/02 11:37:48;;;;;;;148.55;35.53;;;;;;;3.97;69.52;100594.31;5049216;28;20043;-80
2021/11/02 11:40:18;;;;;;;134.05;37.15;;;;;;;3.97;69.83;100604.63;5001449;28;20045;-78
2021/11/02 11:42:50;;;;;;;126.03;32.00;;;;;;;3.92;69.39;100601.03;5047135;28;20149;-79
2021/11/02 11:45:22;;;;;;;121.68;33.13;;;;;;;3.83;69.83;100599.03;5064155;28;20052;-79
2021/11/02 11:48:03;;;;;;;112.10;34.10;;;;;;;3.84;70.31;100598.22;5026707;28;20503;-78
2021/11/02 11:50:31;;;;;;;155.98;36.60;;;;;;;3.91;69.73;100609.56;5050458;28;20059;-79
2021/11/02 11:53:03;;;;;;;155.02;36.35;;;;;;;3.77;71.12;100598.81;5045070;28;20115;-77
2021/11/02 11:55:41;;;;;;;148.10;36.95;;;;;;;3.92;71.20;100603.59;5066870;28;20056;-78
2021/11/02 11:58:23;;;;;;;139.27;33.92;;;;;;;3.86;70.29;100605.97;5032450;28;20067;-77
2021/11/02 12:01:07;;;;;;;152.43;35.92;;;;;;;3.67;70.54;100589.06;5051098;28;20048;-78
2021/11/02 12:03:56;;;;;;;91.47;33.47;;;;;;;3.94;71.49;100601.94;5038048;28;20040;-76
2021/11/02 12:06:29;;;;;;;146.27;32.67;;;;;;;4.06;70.71;100596.28;5034481;28;20067;-80
2021/11/02 12:09:06;;;;;;;114.30;32.50;;;;;;;3.96;70.61;100590.00;5049192;28;20376;-78
2021/11/02 12:11:34;;;;;;;111.88;32.40;;;;;;;4.04;70.15;100605.69;5041722;28;20515;-80
2021/11/02 12:14:17;;;;;;;132.95;34.28;;;;;;;3.97;70.86;100596.00;5010487;28;20141;-81
2021/11/02 12:16:45;;;;;;;132.05;35.55;;;;;;;3.83;70.82;100593.88;5060953;28;20064;-82
2021/11/02 12:19:13;;;;;;;114.65;33.30;;;;;;;3.96;71.92;100602.88;5040731;28;20052;-80
2021/11/02 12:21:42;;;;;;;129.50;33.05;;;;;;;3.88;70.39;100594.88;5045361;28;20045;-78
2021/11/02 12:24:16;;;;;;;144.95;33.08;;;;;;;3.80;70.38;100598.94;5038837;28;20391;-84
2021/11/02 12:26:46;;;;;;;94.73;34.47;;;;;;;3.71;71.67;100576.34;5041903;28;20056;-79
2021/11/02 12:29:21;;;;;;;86.95;32.70;;;;;;;4.00;71.65;100586.66;5025795;28;20119;-78
2021/11/02 12:32:14;;;;;;;116.47;34.25;;;;;;;4.28;71.28;100596.94;5044313;28;20136;-77
2021/11/02 12:35:05;;;;;;;101.70;34.90;;;;;;;4.26;71.42;100606.31;5052370;28;20044;-79
2021/11/02 12:37:35;;;;;;;134.60;34.50;;;;;;;4.24;70.82;100600.25;5058381;28;20072;-78
2021/11/02 12:40:21;;;;;;;124.60;34.03;;;;;;;4.22;71.44;100598.50;5025226;28;20503;-79
2021/11/02 12:42:48;;;;;;;159.20;36.65;;;;;;;3.93;70.62;100574.44;5006716;28;20048;-81
2021/11/02 12:45:18;;;;;;;111.05;33.97;;;;;;;3.69;71.58;100548.78;5036703;28;20068;-80
2021/11/02 12:47:48;;;;;;;125.70;31.50;;;;;;;4.05;70.50;100592.81;5052843;28;20071;-80
2021/11/02 12:50:17;;;;;;;112.35;31.10;;;;;;;3.88;71.59;100584.56;5040716;28;20045;-79
2021/11/02 12:52:45;;;;;;;84.85;30.85;;;;;;;3.92;72.43;100557.25;5034685;28;20103;-80
2021/11/02 12:55:14;;;;;;;126.32;34.05;;;;;;;4.06;71.47;100592.00;5057054;28;20045;-80
2021/11/02 12:57:44;;;;;;;105.40;30.90;;;;;;;4.15;71.09;100593.97;5041823;28;20029;-80
2021/11/02 13:00:26;;;;;;;134.25;32.42;;;;;;;4.00;71.15;100598.66;5054099;28;20045;-79
2021/11/02 13:03:02;;;;;;;105.40;33.20;;;;;;;3.82;71.56;100565.50;5058430;28;20060;-77
2021/11/02 13:05:31;;;;;;;102.78;32.90;;;;;;;4.00;71.83;100594.38;5039588;28;20476;-81
2021/11/02 13:08:04;;;;;;;123.72;34.38;;;;;;;3.81;71.40;100579.19;5022704;28;20088;-80
2021/11/02 13:10:32;;;;;;;84.88;30.52;;;;;;;3.97;72.27;100586.59;5025016;28;20049;-82
2021/11/02 13:13:16;;;;;;;144.18;30.98;;;;;;;3.77;71.28;100573.94;5055393;28;20066;-79
2021/11/02 13:15:50;;;;;;;113.10;28.77;;;;;;;3.75;71.49;100579.88;5055253;28;20048;-79
2021/11/02 13:18:37;;;;;;;94.60;30.42;;;;;;;3.92;71.86;100598.44;5047787;28;20041;-81
2021/11/02 13:21:21;;;;;;;122.80;30.05;;;;;;;3.51;71.64;100557.69;5060352;28;20117;-79
2021/11/02 13:24:06;;;;;;;117.97;30.98;;;;;;;3.71;72.44;100596.06;5055604;28;20116;-78
2021/11/02 13:26:41;;;;;;;113.93;34.22;;;;;;;3.76;72.59;100591.94;5051075;28;20068;-79
2021/11/02 13:29:32;;;;;;;104.10;30.60;;;;;;;3.45;72.70;100518.88;5019156;28;20141;-80
2021/11/02 13:32:09;;;;;;;110.07;32.97;;;;;;;4.02;72.47;100609.91;5053992;28;20120;-80
2021/11/02 13:34:39;;;;;;;88.63;33.85;;;;;;;4.14;73.31;100607.69;5050915;28;20075;-81
2021/11/02 13:37:18;;;;;;;128.45;32.83;;;;;;;4.22;72.69;100603.66;5036300;28;20041;-78
2021/11/02 13:39:59;;;;;;;88.15;30.48;;;;;;;4.14;72.84;100607.69;5037454;28;20033;-80
2021/11/02 13:42:45;;;;;;;110.57;31.55;;;;;;;4.17;72.38;100604.34;5034994;28;20036;-80
2021/11/02 13:45:13;;;;;;;155.52;33.95;;;;;;;4.17;71.97;100597.47;5031429;28;20041;-79
2021/11/02 13:47:47;;;;;;;149.80;32.85;;;;;;;4.05;71.95;100591.97;5052485;28;20045;-82
2021/11/02 13:50:16;;;;;;;179.95;36.33;;;;;;;3.81;72.30;100563.75;5057007;28;20041;-84
2021/11/02 13:52:42;;;;;;;120.03;33.80;;;;;;;3.42;73.25;100514.53;5034256;28;20045;-82
2021/11/02 13:55:12;;;;;;;164.57;35.25;;;;;;;3.63;72.96;100541.75;5048274;28;20068;-82
2021/11/02 13:57:39;;;;;;;130.13;31.65;;;;;;;3.50;72.32;100537.91;5020515;28;20068;-80
2021/11/02 14:00:06;;;;;;;160.98;30.95;;;;;;;3.61;72.78;100572.63;5036190;28;20037;-80
2021/11/02 14:02:41;;;;;;;106.75;29.13;;;;;;;3.72;73.64;100590.09;5016159;28;20066;-80
2021/11/02 14:05:11;;;;;;;92.00;27.67;;;;;;;3.89;73.36;100595.75;5020250;28;20132;-79
2021/11/02 14:07:49;;;;;;;147.85;29.50;;;;;;;3.97;72.44;100596.88;5037336;28;20463;-81
2021/11/02 14:10:29;;;;;;;129.50;29.15;;;;;;;3.71;71.80;100572.88;5013422;28;20047;-80
2021/11/02 14:12:57;;;;;;;151.75;31.25;;;;;;;2.94;71.53;100468.38;5042678;28;20057;-77
2021/11/02 14:15:24;;;;;;;128.60;30.60;;;;;;;3.54;72.86;100570.66;5005517;28;20045;-78
2021/11/02 14:18:08;;;;;;;125.82;29.02;;;;;;;3.59;72.47;100579.41;5054735;28;20052;-79
2021/11/02 14:20:49;;;;;;;128.55;29.35;;;;;;;3.56;73.76;100571.59;5056697;28;20454;-80
2021/11/02 14:23:30;;;;;;;189.68;33.67;;;;;;;3.59;73.16;100584.56;5053771;28;20044;-79
2021/11/02 14:26:15;;;;;;;157.07;32.28;;;;;;;3.57;72.98;100596.50;5056113;28;20041;-80
2021/11/02 14:28:49;;;;;;;108.28;29.38;;;;;;;3.24;73.66;100527.66;5054401;28;20037;-79
2021/11/02 14:31:34;;;;;;;177.32;31.52;;;;;;;3.66;72.77;100584.72;5028900;28;20140;-81
2021/11/02 14:34:01;;;;;;;158.30;32.42;;;;;;;3.56;72.89;100561.28;5009460;28;20065;-81
2021/11/02 14:36:38;;;;;;;130.35;29.27;;;;;;;3.57;73.72;100565.59;5020778;28;20101;-79
2021/11/02 14:39:16;;;;;;;131.77;33.28;;;;;;;3.15;73.87;100481.06;5011503;28;20052;-80
2021/11/02 14:41:50;;;;;;;188.38;35.00;;;;;;;3.33;74.07;100497.91;5020360;28;20048;-82
2021/11/02 14:44:27;;;;;;;106.30;33.80;;;;;;;3.48;73.55;100534.41;5034204;28;20034;-81
2021/11/02 14:47:03;;;;;;;94.35;30.92;;;;;;;3.19;74.23;100457.22;5005289;28;20128;-81
2021/11/02 14:49:46;;;;;;;;;;;;;;;;;;;;;
2021/11/02 14:52:37;;;;;;;104.63;30.95;;;;;;;3.02;73.86;100410.38;5031423;28;20148;-81
2021/11/02 14:55:04;;;;;;;80.63;30.13;;;;;;;3.86;74.37;100546.75;5001559;28;20052;-82
2021/11/02 14:57:49;;;;;;;78.50;30.33;;;;;;;3.38;74.08;100435.47;4999662;28;20042;-80
2021/11/02 15:04:04;;;;;;;79.80;26.40;;;;;;;3.35;73.21;100475.69;5020257;28;20071;-81
2021/11/02 15:06:46;;;;;;;108.13;28.08;;;;;;;3.60;72.96;100558.00;5015161;28;20041;-81
2021/11/02 15:09:47;;;;;;;94.30;28.27;;;;;;;3.20;74.06;100509.50;5028147;28;20101;-80
2021/11/02 15:12:16;;;;;;;90.18;27.38;;;;;;;2.58;74.30;100402.97;5010725;28;20060;-80
2021/11/02 15:14:52;;;;;;;69.28;27.13;;;;;;;3.63;74.64;100571.78;5013417;28;20038;-81
2021/11/02 15:17:28;;;;;;;73.80;28.13;;;;;;;3.66;74.68;100562.44;5017135;28;20048;-81
2021/11/02 15:20:07;;;;;;;79.18;30.30;;;;;;;3.48;74.78;100521.56;5003721;28;20124;-81
2021/11/02 15:22:43;;;;;;;77.40;27.45;;;;;;;3.86;74.86;100568.19;5024781;28;20053;-81
2021/11/02 15:25:13;;;;;;;81.30;26.33;;;;;;;3.05;73.20;100456.75;4993241;28;20033;-81
2021/11/02 15:28:05;;;;;;;102.20;28.37;;;;;;;3.64;73.97;100565.81;4991127;28;20049;-80
2021/11/02 15:30:38;;;;;;;86.57;28.63;;;;;;;3.67;74.25;100571.03;5035246;28;20065;-82
2021/11/02 15:33:09;;;;;;;95.40;28.23;;;;;;;3.25;73.59;100513.97;5041439;28;20167;-81
2021/11/02 15:35:35;;;;;;;79.75;26.95;;;;;;;3.66;74.86;100570.16;5055306;28;20459;-82
2021/11/02 15:38:05;;;;;;;90.28;26.92;;;;;;;3.38;73.50;100561.56;5032369;28;20076;-80
2021/11/02 15:40:40;;;;;;;68.78;27.63;;;;;;;3.18;73.86;100522.34;5065723;28;20032;-81
2021/11/02 15:46:18;;;;;;;75.97;27.27;;;;;;;3.61;75.23;100576.88;4991579;28;20118;-80
2021/11/02 15:48:51;;;;;;;70.03;25.33;;;;;;;3.25;75.30;100495.09;5023995;28;20075;-80
2021/11/02 15:51:35;;;;;;;69.22;26.40;;;;;;;3.75;74.35;100580.75;5037976;28;20055;-81
2021/11/02 15:54:20;;;;;;;61.80;20.92;;;;;;;2.86;73.71;100465.56;5023170;28;20075;-81
2021/11/02 15:57:22;;;;;;;64.28;23.85;;;;;;;3.52;74.98;100587.75;5021344;28;20400;-79
2021/11/02 16:00:27;;;;;;;60.75;23.42;;;;;;;3.21;75.16;100513.84;5029427;28;20060;-80
2021/11/02 16:02:59;;;;;;;57.67;22.70;;;;;;;3.65;74.40;100608.72;5010331;28;20037;-81
2021/11/02 16:05:30;;;;;;;82.68;24.48;;;;;;;3.39;74.84;100547.00;5021149;28;20079;-83
2021/11/02 16:08:00;;;;;;;70.18;25.58;;;;;;;3.49;74.13;100566.19;5020115;28;20045;-82
2021/11/02 16:10:38;;;;;;;72.80;25.47;;;;;;;3.23;74.23;100538.78;5030233;28;20132;-83
2021/11/02 16:13:05;;;;;;;74.82;26.27;;;;;;;2.99;74.64;100508.84;5031364;28;20048;-82
2021/11/02 16:15:34;;;;;;;61.40;23.10;;;;;;;3.05;74.66;100513.34;5028015;28;20056;-80
2021/11/02 16:18:04;;;;;;;65.53;25.38;;;;;;;3.05;74.96;100517.59;5033157;28;20112;-80
2021/11/02 16:20:32;;;;;;;63.13;24.65;;;;;;;3.24;74.82;100584.25;5011855;28;20049;-82
2021/11/02 16:23:40;;;;;;;57.92;23.83;;;;;;;3.26;75.54;100592.03;5054763;28;20133;-82
2021/11/02 16:26:31;;;;;;;61.97;22.20;;;;;;;3.24;75.49;100584.25;5001008;28;20052;-81
2021/11/02 16:29:19;;;;;;;72.97;23.77;;;;;;;2.21;75.96;100389.72;5031034;28;20572;-83
2021/11/02 16:31:48;;;;;;;58.78;22.42;;;;;;;3.11;75.50;100513.53;5033330;28;20081;-81
2021/11/02 16:37:05;;;;;;;63.97;24.77;;;;;;;3.69;75.22;100570.28;5049523;28;20045;-80
2021/11/02 16:39:31;;;;;;;76.80;26.05;;;;;;;3.64;75.07;100558.09;5038206;28;20041;-79
2021/11/02 16:42:05;;;;;;;63.70;23.27;;;;;;;3.42;74.18;100552.25;5058509;28;20530;-82
2021/11/02 16:44:37;;;;;;;58.00;22.27;;;;;;;3.06;75.33;100509.94;5044206;28;20028;-81
2021/11/02 16:47:10;;;;;;;72.13;20.25;;;;;;;3.42;74.08;100575.41;5033200;28;20408;-80
2021/11/02 16:49:39;;;;;;;62.10;21.75;;;;;;;3.08;74.68;100525.41;5036004;28;20051;-81
2021/11/02 16:52:30;;;;;;;83.22;25.05;;;;;;;3.26;74.61;100567.16;5036951;28;20561;-80
2021/11/02 16:55:13;;;;;;;82.78;21.77;;;;;;;3.24;75.27;100584.25;5032710;28;20195;-82
2021/11/02 16:58:25;;;;;;;68.15;22.15;;;;;;;3.18;75.23;100586.63;5051625;28;20041;-82